Time;durP1;ratioP1;P1;durP2;ratioP2;P2;SDS_P1;SDS_P2;PMS_P1;PMS_P2;Temp;Humidity;BMP_temperature;BMP_pressure;BME280_temperature;BME280_humidity;BME280_pressure;Samples;Min_cycle;Max_cycle;Signal;HPM_P1;HPM_P2
2023/09/06 00:01:38;;;;;;;8.07;5.45;;;;;;;-145.63;45.19;38957.75;5023680;28;20109;-68
2023/09/06 00:04:04;;;;;;;8.57;5.28;;;;;;;-145.63;44.58;38973.41;5023483;28;20036;-69
2023/09/06 00:06:30;;;;;;;9.60;5.40;;;;;;;-145.63;45.05;38949.94;5023491;28;20230;-68
2023/09/06 00:08:56;;;;;;;5.85;4.50;;;;;;;-145.63;44.31;38955.81;5023459;28;20451;-66
2023/09/06 00:11:22;;;;;;;8.55;5.35;;;;;;;-145.63;44.52;38987.09;5028963;28;20105;-65
2023/09/06 00:13:48;;;;;;;6.55;4.63;;;;;;;-145.63;44.79;38985.13;5027815;28;20202;-67
2023/09/06 00:16:15;;;;;;;9.20;5.70;;;;;;;-145.63;44.96;38930.38;5023367;28;20036;-67
2023/09/06 00:18:40;;;;;;;8.85;5.85;;;;;;;-145.63;45.14;38987.09;5023210;28;20029;-68
2023/09/06 00:21:06;;;;;;;10.00;5.70;;;;;;;-145.63;45.05;38977.31;5023304;28;20017;-67
2023/09/06 00:23:32;;;;;;;7.88;5.32;;;;;;;-145.63;45.03;38994.91;5023007;28;20046;-67
2023/09/06 00:25:58;;;;;;;7.03;4.90;;;;;;;-145.63;45.50;38963.63;5023288;28;20034;-67
2023/09/06 00:28:24;;;;;;;8.80;5.13;;;;;;;-145.63;45.74;38983.19;5023119;28;20034;-67
2023/09/06 00:30:51;;;;;;;7.05;5.10;;;;;;;-145.63;45.54;38969.50;5023160;28;20060;-66
2023/09/06 00:33:17;;;;;;;8.75;5.70;;;;;;;-145.63;45.83;38996.88;5021652;28;20025;-67
2023/09/06 00:35:43;;;;;;;9.63;6.13;;;;;;;-145.63;45.73;38989.03;5023189;28;20085;-68
2023/09/06 00:38:10;;;;;;;6.60;4.65;;;;;;;-145.63;45.60;39034.03;5022522;28;20026;-67
2023/09/06 00:40:37;;;;;;;9.55;4.68;;;;;;;-145.63;45.49;38992.97;5022729;28;20053;-68
2023/09/06 00:43:05;;;;;;;7.13;5.32;;;;;;;-145.63;45.89;38961.66;5023039;28;20028;-67
2023/09/06 00:45:42;;;;;;;8.55;5.00;;;;;;;-145.63;45.87;39012.50;5023002;28;20089;-67
2023/09/06 00:48:08;;;;;;;9.25;5.18;;;;;;;-145.63;46.23;38959.72;5022909;28;20333;-66
2023/09/06 00:50:35;;;;;;;6.85;4.90;;;;;;;-145.63;46.29;39000.78;5022494;28;20021;-65
2023/09/06 00:53:04;;;;;;;8.77;4.93;;;;;;;-145.63;46.39;39020.34;5023067;28;20044;-66
2023/09/06 00:55:30;;;;;;;9.38;5.40;;;;;;;-145.63;46.33;39022.28;5023278;28;20325;-66
2023/09/06 00:57:56;;;;;;;6.30;5.38;;;;;;;-145.63;46.41;39043.81;5031736;28;20037;-66
2023/09/06 01:00:24;;;;;;;8.60;4.97;;;;;;;-145.63;46.33;39016.44;5028705;28;20017;-66
2023/09/06 01:02:50;;;;;;;9.55;4.88;;;;;;;-145.63;46.58;39014.47;5027022;28;20129;-65
2023/09/06 01:05:19;;;;;;;7.82;4.55;;;;;;;-145.63;46.46;38543.19;5026644;28;20034;-66
2023/09/06 01:07:49;;;;;;;9.10;5.18;;;;;;;-145.63;46.63;38762.22;5026975;28;20022;-66
2023/09/06 01:10:15;;;;;;;6.30;4.70;;;;;;;-145.63;46.67;39028.16;5027029;28;20093;-68
2023/09/06 01:12:41;;;;;;;8.35;5.22;;;;;;;-145.63;46.67;39073.13;5026583;28;20037;-67
2023/09/06 01:15:07;;;;;;;7.30;4.53;;;;;;;-145.63;46.39;39047.72;5025438;28;20026;-67
2023/09/06 01:17:36;;;;;;;6.68;5.03;;;;;;;-145.63;46.38;39022.28;5017110;28;20298;-67
2023/09/06 01:20:18;;;;;;;6.57;4.90;;;;;;;-145.63;46.83;39035.97;5026367;28;20022;-67
2023/09/06 01:22:53;;;;;;;11.25;4.97;;;;;;;-145.63;47.16;39035.97;5025344;28;20282;-66
2023/09/06 01:25:20;;;;;;;6.47;4.72;;;;;;;-145.63;46.77;39030.13;5026039;28;20364;-66
2023/09/06 01:27:47;;;;;;;6.03;4.78;;;;;;;-145.63;46.58;39030.13;5026560;28;20045;-66
2023/09/06 01:30:12;;;;;;;7.93;5.05;;;;;;;-145.63;46.67;39026.19;5026295;28;20018;-66
2023/09/06 01:32:39;;;;;;;5.75;4.88;;;;;;;-145.63;47.08;39059.44;5026348;28;20040;-65
2023/09/06 01:35:08;;;;;;;6.72;4.53;;;;;;;-145.63;46.84;39026.19;5026208;28;20022;-65
2023/09/06 01:37:35;;;;;;;8.23;5.30;;;;;;;-145.63;46.84;39053.59;5026000;28;20030;-66
2023/09/06 01:40:00;;;;;;;6.72;4.82;;;;;;;-145.63;47.04;39041.84;5025948;28;20028;-66
2023/09/06 01:42:26;;;;;;;8.00;5.07;;;;;;;-145.63;47.14;39043.81;5026219;28;20198;-65
2023/09/06 01:44:53;;;;;;;8.43;4.53;;;;;;;-145.63;47.27;39032.06;5026289;28;20030;-65
2023/09/06 01:47:18;;;;;;;6.70;4.75;;;;;;;-145.63;46.91;39051.63;5026168;28;20032;-65
2023/09/06 01:49:44;;;;;;;10.25;5.00;;;;;;;-145.63;46.96;39059.44;5025854;28;20025;-66
2023/09/06 01:52:11;;;;;;;8.60;4.18;;;;;;;-145.63;46.95;39041.84;5026066;28;20370;-65
2023/09/06 01:54:36;;;;;;;6.50;4.72;;;;;;;-145.63;46.93;39039.88;5025542;28;20033;-66
2023/09/06 01:57:02;;;;;;;6.93;5.07;;;;;;;-145.63;47.00;39067.28;5028895;28;20028;-67
2023/09/06 01:59:28;;;;;;;9.05;4.93;;;;;;;-145.63;46.89;39063.34;5025539;28;20034;-65
2023/09/06 02:01:54;;;;;;;9.32;4.88;;;;;;;-145.63;46.44;39034.03;5025777;28;20038;-66
2023/09/06 02:04:20;;;;;;;5.13;4.30;;;;;;;-145.63;46.87;39082.91;5025558;28;20030;-66
2023/09/06 02:06:46;;;;;;;7.43;4.55;;;;;;;-145.63;46.46;39053.59;5025535;28;20029;-65
2023/09/06 02:09:12;;;;;;;6.40;4.68;;;;;;;-145.63;46.44;39034.03;5025643;28;20257;-67
2023/09/06 02:11:38;;;;;;;9.82;5.20;;;;;;;-145.63;46.40;39030.13;5025696;28;20055;-67
2023/09/06 02:14:04;;;;;;;7.90;4.72;;;;;;;-145.63;45.86;39051.63;5025416;28;20226;-68
2023/09/06 02:16:30;;;;;;;6.28;4.47;;;;;;;-145.63;46.29;39067.28;5016140;28;20034;-67
2023/09/06 02:18:55;;;;;;;8.40;4.43;;;;;;;-145.63;46.01;39039.88;5023498;28;20056;-68
2023/09/06 02:21:21;;;;;;;6.57;4.35;;;;;;;-145.63;46.06;39034.03;5023797;28;20274;-67
2023/09/06 02:23:47;;;;;;;8.18;4.80;;;;;;;-145.63;45.97;39041.84;5025258;28;20207;-68
2023/09/06 02:26:12;;;;;;;7.13;4.50;;;;;;;-145.63;46.39;39043.81;5025456;28;20030;-66
2023/09/06 02:28:38;;;;;;;7.80;4.63;;;;;;;-145.63;46.46;39004.69;5023872;28;20065;-67
2023/09/06 02:31:04;;;;;;;7.93;4.25;;;;;;;-145.63;46.34;39034.03;5025039;28;20022;-65
2023/09/06 02:33:30;;;;;;;5.80;4.35;;;;;;;-145.63;46.11;39026.19;5019912;28;20180;-65
2023/09/06 02:35:55;;;;;;;6.13;3.90;;;;;;;-145.63;46.17;39030.13;5014422;28;20013;-67
2023/09/06 02:38:21;;;;;;;6.93;5.03;;;;;;;-145.63;46.25;39037.94;5025082;28;20025;-66
2023/09/06 02:40:47;;;;;;;7.60;4.85;;;;;;;-145.63;46.16;39037.94;5024929;28;20022;-66
2023/09/06 02:43:13;;;;;;;6.82;4.63;;;;;;;-145.63;46.06;39035.97;5024702;28;20025;-65
2023/09/06 02:45:39;;;;;;;10.00;4.60;;;;;;;-145.63;46.21;39018.38;5024785;28;20512;-67
2023/09/06 02:48:15;;;;;;;9.27;4.28;;;;;;;-145.63;46.42;39004.69;5024906;28;20033;-66
2023/09/06 02:50:41;;;;;;;6.50;4.35;;;;;;;-145.63;45.79;39000.78;5024585;28;20105;-67
2023/09/06 02:53:19;;;;;;;6.22;4.40;;;;;;;-145.63;46.25;39020.34;5024725;28;20036;-67
2023/09/06 02:55:47;;;;;;;10.18;4.05;;;;;;;-145.63;46.01;39041.84;5026626;28;20080;-68
2023/09/06 02:58:18;;;;;;;8.23;4.63;;;;;;;-145.63;45.70;39032.06;5029311;28;20030;-67
2023/09/06 03:00:49;;;;;;;6.78;3.95;;;;;;;-145.63;45.94;39028.16;5024505;28;20328;-69
2023/09/06 03:03:16;;;;;;;5.47;4.00;;;;;;;-145.63;45.63;39006.66;5024668;28;20349;-67
2023/09/06 03:05:42;;;;;;;11.02;5.82;;;;;;;-145.63;46.08;39012.50;5024706;28;20336;-66
2023/09/06 03:08:09;;;;;;;7.55;4.15;;;;;;;-145.63;45.83;39032.06;5024704;28;20117;-67
2023/09/06 03:10:35;;;;;;;7.57;4.22;;;;;;;-145.63;45.61;39071.19;5024385;28;20025;-68
2023/09/06 03:13:01;;;;;;;6.97;4.22;;;;;;;-145.63;45.87;38998.81;5024552;28;20038;-67
2023/09/06 03:15:28;;;;;;;5.70;4.30;;;;;;;-145.63;45.63;38985.13;5024262;28;20213;-67
2023/09/06 03:18:00;;;;;;;8.35;5.10;;;;;;;-145.63;45.73;39012.50;5024353;28;20085;-67
2023/09/06 03:20:33;;;;;;;8.93;4.75;;;;;;;-145.63;45.79;39024.25;5023315;28;20018;-68
2023/09/06 03:23:17;;;;;;;9.48;4.45;;;;;;;-145.63;46.00;38770.03;5023003;28;20222;-68
2023/09/06 03:25:44;;;;;;;7.05;4.90;;;;;;;-145.63;45.79;38983.19;5024180;28;20037;-67
2023/09/06 03:28:10;;;;;;;7.30;4.65;;;;;;;-145.63;46.16;39020.34;5024122;28;20029;-68
2023/09/06 03:30:35;;;;;;;8.88;4.43;;;;;;;-145.63;46.17;39018.38;5022912;28;20052;-66
2023/09/06 03:33:02;;;;;;;8.77;4.40;;;;;;;-145.63;45.67;39039.88;5024179;28;20222;-66
2023/09/06 03:35:27;;;;;;;5.10;4.03;;;;;;;-145.63;45.68;39012.50;5023760;28;20084;-67
2023/09/06 03:37:53;;;;;;;5.60;4.03;;;;;;;-145.63;45.64;38992.97;5024060;28;20172;-66
2023/09/06 03:40:25;;;;;;;6.40;4.00;;;;;;;-145.63;45.71;38985.13;5024679;28;20017;-66
2023/09/06 03:42:54;;;;;;;6.70;4.15;;;;;;;-145.63;45.07;38996.88;5029204;28;20030;-66
2023/09/06 03:45:21;;;;;;;5.90;3.95;;;;;;;-145.63;45.06;38985.13;5023359;28;20033;-66
2023/09/06 03:47:48;;;;;;;5.93;4.05;;;;;;;-145.63;45.09;38991.00;5023641;28;20048;-67
2023/09/06 03:50:15;;;;;;;6.28;3.75;;;;;;;-145.63;44.81;38977.31;5023937;28;20093;-67
2023/09/06 03:52:43;;;;;;;5.28;3.55;;;;;;;-145.63;45.01;38965.56;5024035;28;20030;-66
2023/09/06 03:55:10;;;;;;;4.60;3.22;;;;;;;-145.63;44.80;38953.84;5023333;28;20025;-67
2023/09/06 03:57:39;;;;;;;5.20;3.30;;;;;;;-145.63;44.71;38967.53;5032953;28;20325;-66
2023/09/06 04:00:24;;;;;;;6.22;3.83;;;;;;;-145.63;44.94;38955.81;5025527;28;20034;-68
2023/09/06 04:02:50;;;;;;;5.45;3.45;;;;;;;-145.63;44.57;38983.19;5025731;28;20033;-67
2023/09/06 04:05:16;;;;;;;7.65;3.40;;;;;;;-145.63;44.64;38971.44;5023736;28;20080;-65
2023/09/06 04:07:43;;;;;;;7.03;3.30;;;;;;;-145.63;44.93;38989.03;5023064;28;20029;-66
2023/09/06 04:10:16;;;;;;;8.68;3.85;;;;;;;-145.63;44.30;39004.69;5023473;28;20022;-66
2023/09/06 04:12:45;;;;;;;5.57;3.47;;;;;;;-145.63;44.37;38969.50;5023154;28;20136;-66
2023/09/06 04:15:14;;;;;;;4.50;3.30;;;;;;;-145.63;44.48;38946.03;5021999;28;20226;-67
2023/09/06 04:17:40;;;;;;;5.15;3.53;;;;;;;-145.63;44.58;38951.88;5022909;28;20092;-67
2023/09/06 04:20:19;;;;;;;6.85;3.90;;;;;;;-145.63;44.75;38871.72;5012942;28;20025;-66
2023/09/06 04:22:45;;;;;;;7.20;3.65;;;;;;;-145.63;44.68;38977.31;5023054;28;20028;-67
2023/09/06 04:25:11;;;;;;;6.30;3.92;;;;;;;-145.63;44.58;38955.81;5023125;28;20106;-66
2023/09/06 04:27:39;;;;;;;6.90;3.42;;;;;;;-145.63;44.40;38977.31;5023874;28;20169;-68
2023/09/06 04:30:06;;;;;;;4.93;3.70;;;;;;;-145.63;44.82;38973.41;5034574;28;20045;-67
2023/09/06 04:32:34;;;;;;;7.88;4.00;;;;;;;-145.63;44.16;38940.16;5031514;28;20119;-67
2023/09/06 04:35:00;;;;;;;5.57;3.28;;;;;;;-145.63;44.00;38897.13;5017149;28;20017;-68
2023/09/06 04:37:26;;;;;;;6.07;3.70;;;;;;;-145.63;44.63;38940.16;5022653;28;20356;-66
2023/09/06 04:39:53;;;;;;;5.97;3.78;;;;;;;-145.63;44.25;38942.13;5021277;28;20140;-67
2023/09/06 04:42:19;;;;;;;5.03;3.40;;;;;;;-145.63;44.50;38947.97;5023514;28;20049;-65
2023/09/06 04:44:44;;;;;;;9.45;7.07;;;;;;;-145.63;44.35;38910.81;5022894;28;20203;-67
2023/09/06 04:47:14;;;;;;;6.38;4.25;;;;;;;-145.63;44.22;38867.81;5010944;28;20038;-66
2023/09/06 04:49:45;;;;;;;8.23;3.92;;;;;;;-145.63;44.48;38893.22;5019168;28;20338;-66
2023/09/06 04:52:11;;;;;;;6.07;3.55;;;;;;;-145.63;44.29;38938.19;5014653;28;20038;-68
2023/09/06 04:54:37;;;;;;;5.50;3.97;;;;;;;-145.63;44.52;38936.25;5022783;28;20033;-65
2023/09/06 04:57:02;;;;;;;9.18;3.70;;;;;;;-145.63;44.48;38914.72;5024476;28;20038;-64
2023/09/06 04:59:28;;;;;;;6.18;4.32;;;;;;;-145.63;44.68;38912.78;5027622;28;20081;-67
2023/09/06 05:01:53;;;;;;;7.75;3.58;;;;;;;-145.63;44.46;38928.44;5022172;28;20049;-64
2023/09/06 05:04:19;;;;;;;13.32;3.83;;;;;;;-145.63;44.75;38924.50;5022620;28;20040;-65
2023/09/06 05:06:45;;;;;;;8.52;3.88;;;;;;;-145.63;44.45;38910.81;5022340;28;20029;-65
2023/09/06 05:09:10;;;;;;;11.80;3.95;;;;;;;-145.63;44.37;38916.69;5022500;28;20033;-67
2023/09/06 05:11:36;;;;;;;8.25;3.85;;;;;;;-145.63;44.44;38965.56;5022962;28;20034;-67
2023/09/06 05:14:02;;;;;;;8.07;3.85;;;;;;;-145.63;44.92;38926.47;5021670;28;20060;-66
2023/09/06 05:16:28;;;;;;;6.88;3.85;;;;;;;-145.63;44.42;38908.88;5017944;28;20029;-67
2023/09/06 05:18:54;;;;;;;8.95;3.70;;;;;;;-145.63;44.40;38891.28;5022326;28;20022;-68
2023/09/06 05:21:19;;;;;;;7.78;4.20;;;;;;;-145.63;45.09;38922.56;5022335;28;20101;-66
2023/09/06 05:23:45;;;;;;;8.40;4.32;;;;;;;-145.63;44.65;38906.91;5021527;28;20046;-66
2023/09/06 05:26:11;;;;;;;7.88;4.22;;;;;;;-145.63;44.56;38899.09;5023006;28;20237;-67
2023/09/06 05:28:36;;;;;;;12.23;3.92;;;;;;;-145.63;44.86;38920.59;5025935;28;20036;-67
2023/09/06 05:31:03;;;;;;;5.95;3.92;;;;;;;-145.63;44.44;38899.09;5021961;28;20030;-67
2023/09/06 05:33:28;;;;;;;10.23;3.72;;;;;;;-145.63;44.46;38903.00;5022675;28;20022;-66
2023/09/06 05:35:57;;;;;;;5.75;4.00;;;;;;;-145.63;44.31;38899.09;5022827;28;20279;-66
2023/09/06 05:38:22;;;;;;;7.10;4.28;;;;;;;-145.63;44.30;38885.41;5022393;28;20237;-67
2023/09/06 05:40:50;;;;;;;8.73;4.00;;;;;;;-145.63;44.86;38887.34;5022154;28;20017;-66
2023/09/06 05:43:15;;;;;;;8.95;3.85;;;;;;;-145.63;44.77;38863.88;5024426;28;20132;-67
2023/09/06 05:45:41;;;;;;;6.78;4.10;;;;;;;-145.63;44.46;38875.63;5025517;28;20034;-67
2023/09/06 05:48:07;;;;;;;5.40;3.60;;;;;;;-145.63;44.52;38858.03;5025960;28;20245;-66
2023/09/06 05:50:34;;;;;;;7.85;4.22;;;;;;;-145.63;44.51;38877.56;5026082;28;20025;-66
2023/09/06 05:53:00;;;;;;;8.35;4.00;;;;;;;-145.63;44.37;38858.03;5026024;28;20049;-66
2023/09/06 05:55:25;;;;;;;11.27;4.30;;;;;;;-145.63;44.77;38830.66;5025643;28;20045;-66
2023/09/06 05:57:51;;;;;;;8.65;4.22;;;;;;;-145.63;44.42;38844.34;5025047;28;20175;-69
2023/09/06 06:00:17;;;;;;;11.35;4.30;;;;;;;-145.63;44.24;38811.09;5025608;28;20345;-68
2023/09/06 06:02:44;;;;;;;9.57;4.03;;;;;;;-145.63;44.02;38828.69;5025569;28;20034;-68
2023/09/06 06:05:12;;;;;;;6.82;4.05;;;;;;;-145.63;44.29;38858.03;5025935;28;20089;-67
2023/09/06 06:07:39;;;;;;;6.43;3.80;;;;;;;-145.63;44.29;38809.13;5025615;28;20295;-68
2023/09/06 06:10:08;;;;;;;6.15;3.80;;;;;;;-145.63;44.31;38785.66;5025326;28;20036;-67
2023/09/06 06:12:34;;;;;;;7.82;4.20;;;;;;;-145.63;44.12;38758.28;5025051;28;20194;-68
2023/09/06 06:15:00;;;;;;;6.07;4.30;;;;;;;-145.63;43.81;38789.59;5025504;28;20290;-68
2023/09/06 06:17:26;;;;;;;6.97;4.28;;;;;;;-145.63;44.10;38758.28;5019604;28;20029;-68
2023/09/06 06:19:52;;;;;;;12.48;4.07;;;;;;;-145.63;44.24;38754.38;5025559;28;20209;-68
2023/09/06 06:22:17;;;;;;;17.75;6.53;;;;;;;-145.63;43.70;38721.13;5025553;28;20334;-69
2023/09/06 06:24:46;;;;;;;7.30;4.93;;;;;;;-145.63;43.43;38746.56;5024961;28;20034;-67
2023/09/06 06:27:12;;;;;;;10.15;4.65;;;;;;;-145.63;43.69;38758.28;5025129;28;20034;-69
2023/09/06 06:29:38;;;;;;;33.35;27.98;;;;;;;-145.63;43.51;38711.38;5025363;28;20030;-68
2023/09/06 06:32:04;;;;;;;12.93;8.38;;;;;;;-145.63;43.83;38756.34;5023784;28;20029;-69
2023/09/06 06:34:30;;;;;;;8.93;4.28;;;;;;;-145.63;43.78;38728.97;5024435;28;20029;-68
2023/09/06 06:36:56;;;;;;;9.55;4.65;;;;;;;-145.63;43.95;38699.63;5025136;28;20022;-68
2023/09/06 06:39:21;;;;;;;9.27;4.80;;;;;;;-145.63;43.73;38695.72;5025025;28;20191;-68
2023/09/06 06:41:47;;;;;;;8.68;4.90;;;;;;;-145.63;44.29;38684.00;5024857;28;20046;-68
2023/09/06 06:44:13;;;;;;;9.77;4.82;;;;;;;-145.63;43.87;38701.59;5025002;28;20068;-68
2023/09/06 06:46:39;;;;;;;10.93;4.72;;;;;;;-145.63;44.01;38648.78;5023591;28;20030;-68
2023/09/06 06:49:07;;;;;;;8.38;4.53;;;;;;;-145.63;43.97;38680.06;5024604;28;20222;-68
2023/09/06 06:51:38;;;;;;;11.20;4.65;;;;;;;-145.63;43.95;38715.28;5024786;28;20068;-67
2023/09/06 06:54:14;;;;;;;9.27;4.57;;;;;;;-145.63;44.23;38687.91;5023708;28;20025;-68
2023/09/06 06:56:40;;;;;;;12.85;4.10;;;;;;;-145.63;44.25;38656.59;5024589;28;20061;-68
2023/09/06 06:59:09;;;;;;;15.13;9.25;;;;;;;-145.63;44.37;38672.25;5024615;28;20024;-67
2023/09/06 07:01:36;;;;;;;10.50;4.72;;;;;;;-145.63;44.48;38633.16;5024485;28;20036;-68
2023/09/06 07:04:04;;;;;;;9.85;4.88;;;;;;;-145.63;44.98;38656.59;5024375;28;20360;-68
2023/09/06 07:06:30;;;;;;;11.15;4.20;;;;;;;-145.63;44.24;38613.59;5023976;28;20278;-68
2023/09/06 07:08:57;;;;;;;13.65;5.00;;;;;;;-145.63;44.04;38644.88;5024183;28;20452;-68
2023/09/06 07:11:24;;;;;;;12.30;5.05;;;;;;;-145.63;44.03;38646.84;5024131;28;20111;-68
2023/09/06 07:13:51;;;;;;;9.32;4.15;;;;;;;-145.63;43.89;38564.72;5023047;28;20029;-68
2023/09/06 07:16:18;;;;;;;9.35;4.68;;;;;;;-145.63;43.47;38611.63;5024214;28;20026;-69
2023/09/06 07:18:45;;;;;;;10.35;4.75;;;;;;;-145.63;43.27;38545.16;5024147;28;20026;-69
2023/09/06 07:21:11;;;;;;;10.70;5.00;;;;;;;-145.63;43.36;38580.34;5024002;28;20026;-67
2023/09/06 07:23:37;;;;;;;9.13;4.05;;;;;;;-145.63;43.49;38570.56;5024299;28;20057;-69
2023/09/06 07:26:04;;;;;;;12.55;4.45;;;;;;;-145.63;44.06;38623.38;5024084;28;20302;-66
2023/09/06 07:28:46;;;;;;;9.25;4.40;;;;;;;-145.63;43.55;38635.09;5023986;28;20055;-68
2023/09/06 07:31:14;;;;;;;10.57;4.47;;;;;;;-145.63;43.68;38582.31;5014613;28;20029;-68
2023/09/06 07:33:40;;;;;;;5.85;3.97;;;;;;;-145.63;43.98;38635.09;5027753;28;20036;-67
2023/09/06 07:36:06;;;;;;;8.98;4.13;;;;;;;-145.63;43.87;38570.56;5020135;28;20130;-68
2023/09/06 07:38:32;;;;;;;6.50;3.60;;;;;;;-145.63;43.70;38609.69;5024325;28;20037;-68
2023/09/06 07:41:01;;;;;;;10.43;3.97;;;;;;;-145.63;43.87;38597.94;5022501;28;20065;-68
2023/09/06 07:43:28;;;;;;;9.88;4.70;;;;;;;-145.63;43.93;38056.34;5023746;28;20033;-67
2023/09/06 07:46:07;;;;;;;8.55;3.97;;;;;;;-145.63;44.08;38578.41;5021602;28;20041;-67
2023/09/06 07:48:35;;;;;;;8.15;3.92;;;;;;;-145.63;43.75;38492.34;5018761;28;20117;-68
2023/09/06 07:51:04;;;;;;;12.02;4.00;;;;;;;-145.63;44.06;38574.47;5015941;28;20022;-68
2023/09/06 07:53:30;;;;;;;8.65;3.95;;;;;;;-145.63;43.89;38531.47;5025534;28;20034;-67
2023/09/06 07:55:56;;;;;;;9.38;4.28;;;;;;;-145.63;43.46;38549.06;5020990;28;20025;-68
2023/09/06 07:58:22;;;;;;;8.40;4.15;;;;;;;-145.63;44.61;38572.53;5031244;28;20017;-68
2023/09/06 08:00:49;;;;;;;9.02;3.95;;;;;;;-145.63;43.99;38568.63;5026921;28;20392;-70
2023/09/06 08:03:15;;;;;;;7.32;4.53;;;;;;;-145.63;44.71;38594.03;5020375;28;20058;-70
2023/09/06 08:05:41;;;;;;;10.65;4.35;;;;;;;-145.63;44.12;38584.25;5017269;28;20029;-69
2023/09/06 08:08:09;;;;;;;10.13;4.25;;;;;;;-145.63;44.17;38609.69;5019055;28;20096;-68
2023/09/06 08:10:36;;;;;;;13.02;4.60;;;;;;;-145.63;43.66;38605.78;5021545;28;20085;-69
2023/09/06 08:13:03;;;;;;;5.20;3.80;;;;;;;-145.63;44.42;38590.13;5024359;28;20033;-69
2023/09/06 08:15:33;;;;;;;11.90;3.90;;;;;;;-145.63;43.86;38562.75;5031096;28;20250;-69
2023/09/06 08:17:59;;;;;;;7.60;3.97;;;;;;;-145.63;43.59;38560.78;5020731;28;20034;-68
2023/09/06 08:20:25;;;;;;;9.40;3.78;;;;;;;-145.63;43.59;38500.19;5021116;28;20050;-68
2023/09/06 08:22:51;;;;;;;10.93;4.60;;;;;;;-145.63;43.30;38523.66;5018479;28;20033;-68
2023/09/06 08:25:18;;;;;;;13.23;3.80;;;;;;;-145.63;42.96;38461.06;5021534;28;20033;-68
2023/09/06 08:27:45;;;;;;;7.18;3.35;;;;;;;-145.63;42.37;38488.44;5016334;28;20021;-69
2023/09/06 08:30:14;;;;;;;10.30;3.90;;;;;;;-145.63;41.88;38476.72;5023081;28;20033;-67
2023/09/06 08:32:40;;;;;;;10.38;3.67;;;;;;;-145.63;41.70;38494.31;5006715;28;20026;-69
2023/09/06 08:35:07;;;;;;;9.98;3.60;;;;;;;-145.63;41.55;38490.41;5023369;28;20101;-68
2023/09/06 08:37:34;;;;;;;6.78;4.28;;;;;;;-145.63;41.81;38498.22;5021310;28;20030;-68
2023/09/06 08:40:00;;;;;;;10.15;3.67;;;;;;;-145.63;42.03;38490.41;5020154;28;20030;-69
2023/09/06 08:42:33;;;;;;;13.15;4.05;;;;;;;-145.63;41.65;38474.75;5013577;28;20032;-68
2023/09/06 08:45:01;;;;;;;8.63;4.15;;;;;;;-145.63;41.38;38484.53;5016483;28;20026;-68
2023/09/06 08:47:32;;;;;;;6.43;3.72;;;;;;;-145.63;41.13;38382.88;5016859;28;20242;-69
2023/09/06 08:49:59;;;;;;;9.75;3.72;;;;;;;-145.63;40.34;38394.59;5017523;28;20121;-70
2023/09/06 08:52:25;;;;;;;10.63;3.58;;;;;;;-145.63;39.75;38445.44;5015729;28;20026;-67
2023/09/06 08:54:52;;;;;;;16.15;3.80;;;;;;;-145.63;40.26;38484.53;5018419;28;20033;-68
2023/09/06 08:57:20;;;;;;;11.27;4.00;;;;;;;-145.63;40.09;38457.16;5026576;28;20021;-67
2023/09/06 08:59:48;;;;;;;7.47;3.60;;;;;;;-145.63;40.00;38457.16;5019980;28;20053;-69
2023/09/06 09:02:15;;;;;;;5.70;4.25;;;;;;;-145.63;40.13;38496.28;5015303;28;20022;-69
2023/09/06 09:04:44;;;;;;;12.30;3.88;;;;;;;-145.63;40.11;38562.75;5017521;28;20064;-68
2023/09/06 09:07:11;;;;;;;9.13;3.50;;;;;;;-145.63;39.85;38470.84;5016655;28;20340;-68
2023/09/06 09:10:04;;;;;;;10.43;3.50;;;;;;;-145.63;40.11;38562.75;5016554;28;20032;-68
2023/09/06 09:12:31;;;;;;;11.18;4.00;;;;;;;-145.63;39.40;38580.34;5018832;28;20025;-68
2023/09/06 09:14:59;;;;;;;9.80;3.50;;;;;;;-145.63;39.90;38304.66;5022556;28;20025;-68
2023/09/06 09:17:26;;;;;;;10.32;3.40;;;;;;;-145.63;39.88;38590.13;5022754;28;20032;-67
2023/09/06 09:19:54;;;;;;;5.43;3.20;;;;;;;-145.63;40.25;38504.09;5023366;28;20097;-68
2023/09/06 09:22:37;;;;;;;7.70;3.40;;;;;;;-145.63;40.45;38609.69;5026655;28;20090;-68
2023/09/06 09:25:15;;;;;;;8.23;2.97;;;;;;;-145.63;40.70;38592.09;5015698;28;20071;-68
2023/09/06 09:27:49;;;;;;;;;;;;;;;-145.63;40.37;38609.69;5017949;28;20314;-69
2023/09/06 09:30:16;;;;;;;8.10;3.17;;;;;;;-145.63;40.68;38682.03;5027341;28;19921;-67
2023/09/06 09:32:42;;;;;;;6.78;3.00;;;;;;;-145.63;40.37;38586.22;5032227;28;20108;-68
2023/09/06 09:35:13;;;;;;;11.75;3.80;;;;;;;-145.63;40.29;38586.22;5025620;28;20080;-69
2023/09/06 09:37:40;;;;;;;12.63;3.85;;;;;;;-145.63;40.04;38609.69;5022700;28;20021;-70
2023/09/06 09:40:36;;;;;;;10.18;3.42;;;;;;;-145.63;40.41;38586.22;5021164;28;20315;-68
2023/09/06 09:43:04;;;;;;;5.53;2.85;;;;;;;-145.63;40.41;38642.91;5016165;28;20112;-68
2023/09/06 09:45:40;;;;;;;4.75;3.35;;;;;;;-145.63;41.02;38486.50;5031039;28;20041;-68
2023/09/06 09:48:07;;;;;;;7.55;3.30;;;;;;;-145.63;41.01;38592.09;5020234;28;20029;-69
2023/09/06 09:50:34;;;;;;;8.75;3.00;;;;;;;-145.63;40.79;38551.03;5020183;28;20045;-68
2023/09/06 09:53:06;;;;;;;5.80;2.90;;;;;;;-145.63;40.60;38496.28;5020945;28;20064;-69
2023/09/06 09:55:34;;;;;;;8.70;3.50;;;;;;;-145.63;40.40;38439.56;5026940;28;20318;-69
2023/09/06 09:58:05;;;;;;;4.45;2.90;;;;;;;-145.63;39.49;38492.34;5037017;28;20021;-68
2023/09/06 10:00:32;;;;;;;5.18;3.25;;;;;;;-145.63;39.73;38517.78;5031369;28;20032;-69
2023/09/06 10:03:00;;;;;;;4.68;3.30;;;;;;;-145.63;39.55;38500.19;5029774;28;20025;-68
2023/09/06 10:05:29;;;;;;;6.82;3.45;;;;;;;-145.63;39.92;38556.88;5031539;28;20199;-68
2023/09/06 10:07:56;;;;;;;5.40;3.00;;;;;;;-145.63;40.68;38578.41;5025793;28;20026;-69
2023/09/06 10:10:24;;;;;;;4.28;2.90;;;;;;;-145.63;40.50;38615.53;5025886;28;20026;-68
2023/09/06 10:12:52;;;;;;;5.18;2.78;;;;;;;-145.63;40.41;38621.41;5025756;28;20093;-68
2023/09/06 10:15:23;;;;;;;6.93;2.90;;;;;;;-145.63;40.49;38640.97;5025162;28;20033;-68
2023/09/06 10:17:54;;;;;;;7.57;2.97;;;;;;;-145.63;40.85;38637.06;5029241;28;20035;-69
2023/09/06 10:20:30;;;;;;;12.98;2.80;;;;;;;-145.63;40.51;38666.38;5025450;28;20030;-69
2023/09/06 10:22:59;;;;;;;6.45;3.20;;;;;;;-145.63;41.05;38597.94;5025403;28;20021;-70
2023/09/06 10:25:25;;;;;;;7.00;3.05;;;;;;;-145.63;40.32;38568.63;5015922;28;20329;-68
2023/09/06 10:27:53;;;;;;;11.98;3.08;;;;;;;-145.63;38.85;38617.50;5023149;28;20160;-68
2023/09/06 10:30:44;;;;;;;15.18;3.60;;;;;;;-145.63;39.21;38564.72;5006426;28;20025;-69
2023/09/06 10:33:31;;;;;;;5.22;2.90;;;;;;;-145.63;38.40;38533.41;5019455;28;20051;-70
2023/09/06 10:35:58;;;;;;;8.45;2.78;;;;;;;-145.63;37.32;38648.78;5011663;28;20037;-69
2023/09/06 10:38:23;;;;;;;3.97;2.35;;;;;;;-145.63;37.93;38617.50;5025641;28;20101;-71
2023/09/06 10:40:49;;;;;;;8.30;3.50;;;;;;;-145.63;38.12;38547.09;5017117;28;20214;-68
2023/09/06 10:43:28;;;;;;;5.75;2.65;;;;;;;-145.63;37.65;38543.19;5017362;28;20105;-68
2023/09/06 10:46:27;;;;;;;8.30;2.70;;;;;;;-145.63;37.91;38511.91;5019455;28;20022;-68
2023/09/06 10:49:13;;;;;;;6.47;2.95;;;;;;;-145.63;37.97;38519.72;5021985;28;20018;-67
2023/09/06 10:52:04;;;;;;;4.97;2.60;;;;;;;-145.63;37.25;38492.34;5019473;28;20061;-68
2023/09/06 10:54:40;;;;;;;4.57;2.55;;;;;;;-145.63;36.13;38535.38;5018109;28;20043;-68
2023/09/06 10:57:10;;;;;;;5.75;2.72;;;;;;;-145.63;36.20;38478.66;5025433;28;20032;-68
2023/09/06 10:59:44;;;;;;;4.15;2.65;;;;;;;-145.63;36.78;38502.13;5021620;28;20028;-68
2023/09/06 11:02:19;;;;;;;9.57;2.88;;;;;;;-145.63;36.03;38441.53;5018675;28;20045;-69
2023/09/06 11:04:45;;;;;;;5.47;2.70;;;;;;;-145.63;35.83;38423.91;5019149;28;20025;-69
2023/09/06 11:07:11;;;;;;;4.90;2.88;;;;;;;-145.63;36.13;38242.09;5021413;28;20052;-67
2023/09/06 11:09:50;;;;;;;5.55;2.88;;;;;;;-145.63;36.27;38429.78;5018580;28;20093;-73
2023/09/06 11:12:17;;;;;;;9.00;2.47;;;;;;;-145.63;35.31;38461.06;5015271;28;20203;-69
2023/09/06 11:14:47;;;;;;;3.15;2.05;;;;;;;-145.63;35.46;38406.31;5018445;28;20071;-68
2023/09/06 11:17:23;;;;;;;8.15;2.80;;;;;;;-145.63;34.66;38406.31;5018777;28;20029;-69
2023/09/06 11:19:50;;;;;;;3.72;2.60;;;;;;;-145.63;36.08;38449.34;5028363;28;20014;-68
2023/09/06 11:22:18;;;;;;;5.03;2.38;;;;;;;-145.63;34.93;38463.03;5018050;28;20033;-68